x

Buoy E01 - Central Maine Shelf (44032) Wave Buoy

9:04am - Mon 16th Jan 2017 All times are EST. -5 hours from GMT.

  • Sig Wave height 1.3ft
  • Peak Period 2s
  • Wind
    16mph, 20mph gusts
  • Sea Temp 46°f
  • Air Temp 33°f
  • Sea Pressure 1028.4mb
  • Buoy E01 - Central Maine Shelf
  • Buoy E01 - Central Maine Shelf

More Historic Weather Station data

Upgrade to MSW Pro to gain access to the past 30 days of data for over 8000 Wavebouys and Weather Stations around the globe.

Join Pro

Comparision Forecast

View Surf forecast
   
Mon 01/16 9:04am 1.3ft 2s 16 20 mph 1028.4mb 46f 33f
8:04am 1ft 5s 9 16 mph 1029.1mb 46f 31f
7:04am 1ft 5s 7 11 mph 1029.5mb 46f 28f
6:04am 1.3ft 11s 4 7 mph 1029.9mb 46f 27f
5:04am 0.7ft  -  2 4 mph 1030.1mb 46f 25f
4:04am 0.7ft  -  2 7 mph 1030.2mb 46f 25f
3:04am 1ft 4s 4 7 mph 1030.3mb 46f 24f
2:04am 1.3ft 3s 4 7 mph 1030.4mb 46f 24f
1:04am 1.3ft 4s 9 13 mph 1030.1mb 46f 23f
12:04am 1.6ft 3s 11 16 mph 1029.5mb 46f 24f
Sun 01/15 11:04pm 2ft 4s 16 18 mph 1029.1mb 46f 24f
10:04pm 2.5ft 4s 18 25 mph 1029.4mb 46f 25f
9:04pm 2.5ft 4s 20 25 mph 1029.2mb 46f 26f
8:04pm 2.5ft 4s 22 29 mph 1028.4mb 46f 28f
7:04pm 2.5ft 3s 20 27 mph 1028.5mb 46f 28f
6:04pm 2.5ft 4s 22 29 mph 1027.7mb 46f 29f
5:04pm 2.5ft 3s 22 29 mph 1026.8mb 46f 29f
4:04pm 2.5ft 4s 18 22 mph 1025.7mb 46f 30f
3:04pm 2.5ft 3s 16 22 mph 1024.7mb 46f 31f
2:04pm 2.5ft 3s 18 22 mph 1024.1mb 46f 30f
1:04pm 2.5ft 3s 18 25 mph 1023.7mb 46f 30f
12:04pm 2.5ft 4s 18 22 mph 1023.7mb 46f 29f
11:04am 2.5ft 4s 18 22 mph 1024mb 46f 29f
10:04am 3.5ft 4s 22 25 mph 1024.2mb 46f 30f
9:04am 3.5ft 4s 25 31 mph 1023.8mb 46f 31f
8:04am 2.5ft 5s 22 27 mph 1023.3mb 46f 31f
7:04am 3.5ft 6s 20 22 mph 1022.6mb 46f 29f
6:04am 3.5ft 5s 13 18 mph 1022.3mb 46f 29f
5:04am 4.5ft 5s 13 16 mph 1022.1mb 46f 29f
4:04am 4ft 5s 13 18 mph 1021.7mb 45f 29f
3:04am 4.5ft 5s 16 20 mph 1021.7mb 45f 29f
2:04am 4ft 5s 13 18 mph 1022mb 45f 30f
1:04am 4.5ft 5s 22 29 mph 1022.1mb 45f 32f
12:04am 5ft 5s 22 27 mph 1022.6mb 45f 33f
Sat 01/14 11:04pm 4.5ft 5s 22 27 mph 1023.6mb 45f 34f
10:04pm 3.5ft 5s 20 25 mph 1024.8mb 45f 33f
9:04pm 3ft 4s 20 25 mph 1026mb 45f 33f
8:04pm 2.5ft 4s 18 25 mph 1027mb 45f 30f
7:04pm 2ft 3s 18 22 mph 1028.3mb 45f 28f
6:04pm  -   -  16 20 mph 1029.6mb 45f 27f
5:04pm  -   -  13 16 mph 1030.3mb 45f 25f
4:04pm 2ft 11s 9 13 mph 1031.5mb 45f 23f
3:04pm  -   -  11 16 mph 1032.8mb 45f 22f
2:04pm 1.6ft 11s 9 13 mph 1033.3mb 45f 21f
1:04pm 1.6ft 11s 9 13 mph 1033.9mb 45f 20f
12:04pm 1ft 3s 11 13 mph 1035.6mb 45f 19f
11:04am 1.3ft 3s 7 11 mph 1037.1mb 45f 18f
10:04am 2.5ft 8s 9 11 mph 1038.6mb 45f 17f
9:04am 2ft 4s 13 18 mph 1039mb 45f 17f
8:04am 2.5ft 4s 18 22 mph 1039.1mb 45f 17f
7:04am 2.5ft 4s 22 27 mph 1039mb 45f 17f
6:04am 2.5ft 4s 22 29 mph 1039.1mb 45f 17f
5:04am 2.5ft 3s 18 25 mph 1039.4mb 45f 16f
4:04am 2.5ft 3s 18 22 mph 1039.2mb 45f 17f
3:04am 2.5ft 3s 20 25 mph 1039mb 45f 18f
2:04am 2.5ft 4s 20 27 mph 1038.5mb 45f 19f
1:04am 3.5ft 4s 25 29 mph 1037.7mb 45f 20f
12:04am 3.5ft 4s 22 27 mph 1037.4mb 45f 21f
Fri 01/13 11:04pm 3.5ft 4s 25 31 mph 1037mb 45f 22f
10:04pm 3.5ft 4s 20 25 mph 1036.5mb 45f 23f
9:04pm 3.5ft 4s 20 25 mph 1035.8mb 45f 25f
8:04pm 4.5ft 4s 22 31 mph 1034.9mb 45f 26f
7:04pm 4.5ft 4s 27 31 mph 1033.5mb 45f 28f
6:04pm 4.5ft 4s 27 31 mph 1032.3mb 45f 29f
5:04pm 5ft 5s 27 34 mph 1030.7mb 45f 33f
4:04pm 5ft 5s 34 40 mph 1028.8mb 45f 35f
3:04pm 5ft 4s 27 34 mph 1027mb 45f 37f
2:04pm 3.5ft 4s 27 36 mph 1024.8mb 45f 39f
1:04pm 4.5ft 4s 27 34 mph 1023.4mb 45f 39f
11:04am 5ft 5s 22 27 mph 1022.2mb 45f 38f
10:04am  -   -  27 31 mph 1022.1mb 45f 39f
9:04am 5ft 8s 25 29 mph 1020.6mb 45f 42f
8:04am 6ft 8s 22 27 mph 1019.6mb 45f 43f
7:04am 6ft 8s 13 16 mph 1017.9mb 45f 44f
6:04am 7ft 8s 13 16 mph 1016.6mb 45f 45f
5:04am 7ft 8s 13 18 mph 1015.1mb 45f 45f
4:04am 7ft 8s 20 22 mph 1013.9mb 45f 46f
3:04am 10ft 11s 20 25 mph 1013.1mb 45f 46f
2:04am  -   -  22 27 mph 1012.2mb 45f 47f
1:04am 7ft 8s 20 25 mph 1011mb 45f 47f
12:04am 8.5ft 8s 22 29 mph 1010.4mb 45f 47f
Thu 01/12 11:04pm 8ft 8s 22 27 mph 1010.3mb 45f 47f
10:04pm 7ft 8s 22 27 mph 1010.2mb 45f 47f
9:04pm 7ft 8s 20 25 mph 1010.6mb 45f 47f
8:04pm 8ft 8s 22 27 mph 1010.8mb 45f 47f
7:04pm 7.5ft 6s 20 22 mph 1011.6mb 45f 46f
6:04pm 9.5ft 8s 18 22 mph 1012.1mb 45f 46f
5:04pm 8ft 8s 18 22 mph 1012.4mb 45f 46f
4:04pm 9ft 8s 20 25 mph 1012.2mb 45f 46f